Homer, North Dakota
Current Conditions -  °F | °C
As of 4:56 AM on Friday 24 Oct 2014 (Local Time) from KJMS Reporting Station
Clear Clear  
Wind Chill: 42°   Ceiling: Unl
Heat Index: 42°   Visibility: 10mi
Dew Point: 36°   Wind: 0mph
Humidity: 79%   Direction: NA
Pressure: 29.78"   Gusts: NA
Location:  46.8494°N, 98.7424°W
Report Text: KJMS 240956Z AUTO 00000KT 10SM CLR 06/02 A2978 RMK AO2 SLP089 T00560022
Loading
Personal Weather Stations






























Interactive Weather Map
Tropical Storm Tracking
New forecast layout! Learn more

10-Day Weather Forecast

Advertisements
Track Severe Weather on mobile